createdAt,value
2019-01-11T00:00:40.378Z,6.00
2019-01-11T00:03:43.772Z,6.00
2019-01-11T00:06:47.173Z,7.87
2019-01-11T00:09:50.542Z,7.17
2019-01-11T00:12:53.956Z,8.33
2019-01-11T00:15:57.364Z,6.93
2019-01-11T00:19:06.958Z,8.20
2019-01-11T00:22:04.298Z,7.60
2019-01-11T00:25:07.764Z,6.67
2019-01-11T00:28:11.266Z,9.87
2019-01-11T00:31:14.696Z,8.10
2019-01-11T00:34:19.121Z,9.20
2019-01-11T00:37:22.576Z,9.13
2019-01-11T00:40:26.027Z,6.87
2019-01-11T00:43:29.394Z,8.10
2019-01-11T00:46:32.803Z,8.50
2019-01-11T00:49:36.208Z,8.50
2019-01-11T00:52:39.692Z,11.30
2019-01-11T00:55:43.106Z,8.43
2019-01-11T00:58:46.494Z,7.40
2019-01-11T01:01:50.806Z,7.87
2019-01-11T01:04:54.246Z,6.20
2019-01-11T01:07:57.710Z,7.30
2019-01-11T01:11:01.140Z,8.77
2019-01-11T01:14:04.644Z,6.87
2019-01-11T01:17:08.299Z,7.67
2019-01-11T01:20:12.499Z,9.37
2019-01-11T01:23:15.929Z,18.53
2019-01-11T01:26:19.369Z,13.67
2019-01-11T01:29:22.777Z,11.10
2019-01-11T01:32:28.120Z,16.37
2019-01-11T01:35:31.504Z,17.87
2019-01-11T01:38:34.910Z,17.37
2019-01-11T01:41:38.360Z,23.40
2019-01-11T01:44:41.712Z,13.07
2019-01-11T01:47:45.178Z,6.50
2019-01-11T01:50:48.525Z,7.03
2019-01-11T01:53:51.948Z,10.60
2019-01-11T01:56:55.328Z,8.47
2019-01-11T01:59:58.698Z,6.43
2019-01-11T02:03:02.145Z,5.60
2019-01-11T02:06:05.637Z,12.30
2019-01-11T02:09:09.221Z,7.27
2019-01-11T02:12:12.703Z,8.30
2019-01-11T02:15:16.065Z,8.67
2019-01-11T02:18:19.468Z,10.07
2019-01-11T02:21:22.832Z,13.77
2019-01-11T02:24:26.316Z,16.30
2019-01-11T02:27:29.727Z,11.30
2019-01-11T02:30:33.148Z,8.70
2019-01-11T02:33:36.536Z,9.70
2019-01-11T02:36:39.941Z,10.17
2019-01-11T02:39:43.373Z,11.40
2019-01-11T02:42:46.754Z,9.07
2019-01-11T02:45:50.141Z,11.97
2019-01-11T02:48:53.649Z,14.10
2019-01-11T02:51:57.065Z,25.93
2019-01-11T02:55:00.449Z,29.77
2019-01-11T02:58:03.852Z,23.80
2019-01-11T03:01:07.285Z,14.07
2019-01-11T03:04:10.687Z,14.47
2019-01-11T03:07:14.078Z,11.80
2019-01-11T03:10:19.258Z,10.37
2019-01-11T03:13:22.697Z,10.47
2019-01-11T03:16:26.428Z,11.90
2019-01-11T03:19:29.809Z,9.63
2019-01-11T03:22:33.223Z,10.90
2019-01-11T03:25:37.726Z,8.63
2019-01-11T03:28:42.093Z,10.13
2019-01-11T03:31:45.476Z,8.57
2019-01-11T03:34:55.058Z,10.53
2019-01-11T03:37:58.459Z,9.97
2019-01-11T03:41:01.874Z,9.60
2019-01-11T03:44:06.216Z,9.87
2019-01-11T03:47:09.602Z,10.17
2019-01-11T03:50:13.535Z,10.47
2019-01-11T03:53:16.936Z,10.70
2019-01-11T03:56:20.357Z,9.90
2019-01-11T03:59:23.763Z,11.47
2019-01-11T04:02:27.148Z,10.87
2019-01-11T04:05:30.573Z,11.77
2019-01-11T04:08:34.320Z,10.80
2019-01-11T04:11:37.760Z,13.03
2019-01-11T04:14:41.164Z,10.60
2019-01-11T04:17:44.625Z,11.37
2019-01-11T04:20:48.048Z,10.07
2019-01-11T04:23:51.436Z,10.23
2019-01-11T04:26:54.878Z,10.83
2019-01-11T04:29:58.265Z,10.40
2019-01-11T04:33:01.677Z,11.07
2019-01-11T04:36:05.120Z,9.63
2019-01-11T04:39:08.530Z,10.90
2019-01-11T04:42:11.971Z,10.27
2019-01-11T04:45:15.458Z,10.10
2019-01-11T04:48:18.889Z,11.93
2019-01-11T04:51:22.524Z,11.93
2019-01-11T04:54:26.035Z,12.77
2019-01-11T04:57:30.489Z,11.40
2019-01-11T05:00:34.079Z,13.43
2019-01-11T05:03:37.514Z,10.67
2019-01-11T05:06:40.986Z,9.77
2019-01-11T05:09:44.532Z,9.97
2019-01-11T05:12:48.072Z,12.17
2019-01-11T05:15:51.717Z,13.50
2019-01-11T05:18:55.353Z,9.73
2019-01-11T05:21:58.895Z,10.50
2019-01-11T05:25:02.361Z,10.77
2019-01-11T05:28:05.902Z,9.33
2019-01-11T05:31:10.418Z,11.57
2019-01-11T05:34:13.929Z,11.83
2019-01-11T05:37:17.379Z,11.53
2019-01-11T05:40:20.978Z,13.33
2019-01-11T05:43:24.380Z,11.53
2019-01-11T05:46:27.824Z,13.97
2019-01-11T05:49:31.205Z,10.17
2019-01-11T05:52:34.592Z,11.33
2019-01-11T05:55:50.333Z,11.03
2019-01-11T05:58:57.865Z,11.80
2019-01-11T06:02:01.344Z,10.07
2019-01-11T06:05:08.028Z,11.97
2019-01-11T06:08:14.801Z,10.07
2019-01-11T06:11:18.260Z,11.60
2019-01-11T06:14:21.742Z,10.83
2019-01-11T06:17:25.168Z,14.20
2019-01-11T06:20:30.487Z,11.80
2019-01-11T06:23:32.120Z,13.60
2019-01-11T06:26:35.587Z,12.40
2019-01-11T06:29:39.008Z,10.77
2019-01-11T06:32:42.448Z,12.50
2019-01-11T06:35:45.875Z,12.60
2019-01-11T06:38:49.270Z,11.97
2019-01-11T06:41:54.519Z,13.40
2019-01-11T06:44:57.986Z,12.80
2019-01-11T06:48:01.499Z,13.03
2019-01-11T06:51:05.047Z,14.40
2019-01-11T06:54:08.466Z,14.63
2019-01-11T06:57:11.829Z,14.33
2019-01-11T07:00:15.378Z,12.70
2019-01-11T07:03:18.886Z,14.47
2019-01-11T07:06:22.364Z,13.93
2019-01-11T07:09:25.789Z,16.50
2019-01-11T07:12:29.222Z,14.70
2019-01-11T07:15:32.618Z,13.77
2019-01-11T07:18:36.063Z,14.47
2019-01-11T07:21:39.477Z,15.17
2019-01-11T07:24:42.851Z,12.77
2019-01-11T07:27:50.555Z,13.67
2019-01-11T07:30:59.202Z,11.50
2019-01-11T07:34:02.581Z,14.37
2019-01-11T07:37:06.164Z,12.63
2019-01-11T07:40:09.825Z,12.07
2019-01-11T07:43:13.193Z,10.87
2019-01-11T07:46:16.577Z,15.23
2019-01-11T07:49:23.228Z,13.07
2019-01-11T07:52:23.541Z,14.03
2019-01-11T07:55:27.127Z,14.00
2019-01-11T07:58:30.530Z,13.50
2019-01-11T08:01:36.142Z,15.93
2019-01-11T08:04:39.614Z,15.23
2019-01-11T08:07:43.099Z,12.77
2019-01-11T08:10:46.485Z,15.30
2019-01-11T08:13:49.853Z,15.10
2019-01-11T08:16:53.243Z,14.03
2019-01-11T08:19:56.712Z,14.60
2019-01-11T08:23:00.201Z,12.87
2019-01-11T08:26:03.847Z,15.20
2019-01-11T08:29:07.317Z,16.07
2019-01-11T08:32:10.795Z,14.27
2019-01-11T08:35:14.350Z,14.63
2019-01-11T08:38:17.799Z,16.60
2019-01-11T08:41:21.259Z,16.60
2019-01-11T08:44:24.720Z,15.80
2019-01-11T08:47:28.118Z,17.10
2019-01-11T08:50:31.620Z,19.23
2019-01-11T08:53:35.250Z,17.63
2019-01-11T08:56:38.535Z,17.47
2019-01-11T08:59:41.928Z,16.47
2019-01-11T09:03:33.785Z,21.03
2019-01-11T09:06:38.340Z,19.97
2019-01-11T09:09:41.840Z,17.50
2019-01-11T09:12:45.288Z,20.77
2019-01-11T09:15:49.171Z,19.00
2019-01-11T09:18:55.273Z,18.07
2019-01-11T09:21:58.646Z,22.03
2019-01-11T09:25:02.065Z,19.10
2019-01-11T09:28:05.522Z,20.70
2019-01-11T09:31:08.993Z,19.73
2019-01-11T09:34:12.482Z,19.83
2019-01-11T09:37:15.850Z,22.93
2019-01-11T09:40:19.286Z,20.63
2019-01-11T09:43:22.801Z,21.17
2019-01-11T09:46:26.273Z,19.87
2019-01-11T09:49:29.671Z,21.40
2019-01-11T09:52:33.088Z,19.87
2019-01-11T09:55:36.509Z,21.97
2019-01-11T09:58:39.987Z,19.97
2019-01-11T10:01:43.464Z,20.90
2019-01-11T10:04:46.878Z,22.17
2019-01-11T10:07:50.301Z,19.37
2019-01-11T10:10:53.782Z,19.67
2019-01-11T10:13:57.415Z,21.00
2019-01-11T10:17:00.760Z,21.13
2019-01-11T10:20:04.457Z,25.37
2019-01-11T10:23:07.914Z,27.30
2019-01-11T10:26:11.352Z,29.90
2019-01-11T10:29:14.774Z,27.53
2019-01-11T10:32:18.240Z,23.20
2019-01-11T10:35:21.642Z,25.40
2019-01-11T10:38:25.096Z,25.53
2019-01-11T10:41:28.534Z,29.87
2019-01-11T10:44:31.895Z,27.97
2019-01-11T10:47:35.314Z,24.73
2019-01-11T10:50:38.802Z,23.10
2019-01-11T10:53:42.231Z,26.97
2019-01-11T10:56:45.738Z,27.37
2019-01-11T10:59:49.118Z,27.03
2019-01-11T11:02:52.856Z,24.77
2019-01-11T11:05:56.291Z,26.17
2019-01-11T11:08:59.743Z,24.50
2019-01-11T11:12:03.149Z,26.43
2019-01-11T11:15:07.386Z,26.10
2019-01-11T11:18:10.769Z,26.93
2019-01-11T11:21:14.183Z,22.00
2019-01-11T11:24:17.613Z,25.63
2019-01-11T11:27:21.087Z,20.83
2019-01-11T11:30:24.490Z,21.97
2019-01-11T11:33:27.847Z,24.17
2019-01-11T11:36:31.237Z,24.70
2019-01-11T11:39:34.697Z,25.67
2019-01-11T11:42:38.181Z,22.63
2019-01-11T11:45:41.594Z,25.00
2019-01-11T11:48:45.096Z,22.63
2019-01-11T11:51:48.841Z,29.67
2019-01-11T11:54:52.280Z,22.97
2019-01-11T11:57:55.696Z,25.97
2019-01-11T12:00:59.167Z,24.63
2019-01-11T12:04:02.579Z,27.37
2019-01-11T12:07:07.712Z,24.80
2019-01-11T12:10:11.572Z,29.10
2019-01-11T12:13:15.003Z,24.07
2019-01-11T12:16:18.560Z,26.07
2019-01-11T12:19:21.893Z,23.37
2019-01-11T12:22:25.357Z,24.33
2019-01-11T12:25:28.769Z,25.17
2019-01-11T12:28:32.244Z,26.27
2019-01-11T12:31:35.638Z,31.73
2019-01-11T12:34:39.033Z,27.50
2019-01-11T12:37:42.452Z,21.53
2019-01-11T12:40:45.851Z,24.57
2019-01-11T12:43:49.919Z,22.17
2019-01-11T12:46:52.811Z,25.87
2019-01-11T12:49:56.253Z,27.73
2019-01-11T12:52:59.715Z,21.67
2019-01-11T12:56:03.199Z,23.80
2019-01-11T12:59:06.704Z,23.67
2019-01-11T13:02:10.473Z,24.03
2019-01-11T13:05:16.269Z,19.70
2019-01-11T13:08:19.821Z,21.10
2019-01-11T13:11:23.265Z,21.90
2019-01-11T13:14:27.072Z,20.27
2019-01-11T13:17:30.601Z,22.10
2019-01-11T13:20:34.074Z,18.67
2019-01-11T13:23:37.479Z,23.87
2019-01-11T13:26:40.875Z,21.73
2019-01-11T13:29:44.302Z,20.83
2019-01-11T13:32:47.883Z,21.20
2019-01-11T13:35:51.720Z,22.87
2019-01-11T13:38:55.233Z,21.50
2019-01-11T13:41:58.796Z,19.17
2019-01-11T13:45:02.360Z,22.97
2019-01-11T13:48:05.929Z,19.57
2019-01-11T13:51:09.474Z,22.60
2019-01-11T13:54:12.935Z,21.60
2019-01-11T13:57:16.434Z,20.00
2019-01-11T14:00:19.993Z,19.50
2019-01-11T14:03:23.445Z,22.27
2019-01-11T14:06:26.998Z,18.83
2019-01-11T14:09:30.486Z,20.40
2019-01-11T14:12:33.903Z,20.53
2019-01-11T14:15:37.440Z,20.17
2019-01-11T14:18:40.916Z,19.77
2019-01-11T14:21:44.559Z,18.50
2019-01-11T14:24:48.137Z,22.90
2019-01-11T14:27:51.554Z,19.47
2019-01-11T14:30:55.038Z,18.57
2019-01-11T14:33:58.679Z,21.00
2019-01-11T14:37:02.210Z,18.00
2019-01-11T14:40:07.602Z,21.63
2019-01-11T14:43:11.071Z,19.60
2019-01-11T14:46:14.553Z,17.53
2019-01-11T14:49:18.034Z,19.50
2019-01-11T14:52:21.569Z,16.40
2019-01-11T14:55:25.020Z,18.30
2019-01-11T14:58:28.881Z,17.33
2019-01-11T15:01:32.057Z,22.63
2019-01-11T15:04:35.633Z,23.50
2019-01-11T15:07:39.102Z,18.97
2019-01-11T15:10:42.571Z,19.40
2019-01-11T15:13:46.031Z,21.33
2019-01-11T15:16:49.402Z,19.63
2019-01-11T15:19:52.873Z,21.13
2019-01-11T15:22:56.345Z,20.17
2019-01-11T15:25:59.751Z,18.00
2019-01-11T15:29:03.235Z,19.57
2019-01-11T15:32:06.620Z,19.80
2019-01-11T15:35:10.166Z,22.77
2019-01-11T15:38:13.608Z,18.60
2019-01-11T15:41:17.273Z,22.00
2019-01-11T15:44:20.692Z,20.90
2019-01-11T15:47:24.167Z,19.03
2019-01-11T15:50:38.788Z,20.27
2019-01-11T15:53:42.265Z,19.70
2019-01-11T15:56:45.793Z,20.60
2019-01-11T15:59:58.916Z,22.97
2019-01-11T16:03:02.379Z,19.63
2019-01-11T16:06:30.848Z,24.83
2019-01-11T16:09:49.834Z,19.40
2019-01-11T16:13:10.398Z,19.30
2019-01-11T16:16:22.474Z,19.33
2019-01-11T16:19:26.200Z,18.83
2019-01-11T16:22:29.717Z,19.30
2019-01-11T16:25:33.215Z,20.03
2019-01-11T16:28:36.730Z,18.90
2019-01-11T16:31:40.332Z,23.33
2019-01-11T16:34:43.900Z,21.30
2019-01-11T16:37:47.502Z,22.77
2019-01-11T16:40:50.924Z,22.57
2019-01-11T16:43:54.356Z,19.37
2019-01-11T16:46:57.931Z,20.80
2019-01-11T16:50:01.438Z,22.20
2019-01-11T16:53:04.917Z,20.87
2019-01-11T16:56:08.420Z,21.97
2019-01-11T16:59:11.976Z,23.47
2019-01-11T17:02:15.485Z,22.63
2019-01-11T17:05:18.950Z,21.67
2019-01-11T17:08:22.454Z,20.53
2019-01-11T17:11:25.945Z,21.50
2019-01-11T17:14:29.429Z,21.27
2019-01-11T17:17:32.962Z,18.37
2019-01-11T17:20:36.449Z,20.40
2019-01-11T17:23:40.843Z,20.43
2019-01-11T17:26:44.349Z,17.27
2019-01-11T17:29:47.714Z,17.70
2019-01-11T17:32:52.184Z,16.43
2019-01-11T17:35:55.621Z,17.00
2019-01-11T17:38:59.117Z,20.37
2019-01-11T17:42:03.881Z,19.80
2019-01-11T17:45:08.898Z,21.93
2019-01-11T17:48:15.474Z,19.50
2019-01-11T17:51:19.143Z,18.90
2019-01-11T17:54:29.622Z,17.77
2019-01-11T17:57:33.584Z,17.93
2019-01-11T18:00:37.059Z,18.30
2019-01-11T18:03:40.504Z,19.57
2019-01-11T18:06:44.052Z,19.63
2019-01-11T18:09:47.718Z,19.53
2019-01-11T18:12:51.134Z,19.30
2019-01-11T18:15:54.545Z,19.00
2019-01-11T18:18:57.946Z,19.40
2019-01-11T18:22:01.283Z,18.03
2019-01-11T18:25:05.482Z,21.37
2019-01-11T18:28:09.028Z,20.87
2019-01-11T18:31:12.528Z,20.30
2019-01-11T18:34:17.473Z,18.47
2019-01-11T18:37:19.919Z,20.23
2019-01-11T18:40:24.340Z,21.67
2019-01-11T18:43:27.795Z,20.47
2019-01-11T18:46:31.259Z,25.30
2019-01-11T18:49:35.493Z,21.90
2019-01-11T18:52:38.922Z,21.00
2019-01-11T18:55:42.515Z,23.03
2019-01-11T18:58:46.030Z,22.90
2019-01-11T19:01:49.455Z,21.83
2019-01-11T19:04:53.678Z,22.43
2019-01-11T19:07:57.191Z,23.40
2019-01-11T19:11:00.703Z,22.03
2019-01-11T19:14:04.301Z,22.80
2019-01-11T19:17:07.931Z,21.40
2019-01-11T19:20:15.670Z,23.73
2019-01-11T19:23:20.584Z,22.87
2019-01-11T19:26:22.679Z,24.63
2019-01-11T19:29:26.829Z,23.47
2019-01-11T19:32:30.243Z,24.23
2019-01-11T19:35:33.822Z,24.03
2019-01-11T19:38:37.394Z,24.37
2019-01-11T19:41:40.884Z,29.67
2019-01-11T19:44:44.435Z,23.67
2019-01-11T19:47:49.469Z,30.57
2019-01-11T19:50:54.798Z,23.97
2019-01-11T19:53:59.487Z,25.17
2019-01-11T19:57:03.344Z,27.60
2019-01-11T20:00:11.116Z,27.73
2019-01-11T20:03:14.651Z,24.97
2019-01-11T20:06:18.197Z,23.37
2019-01-11T20:09:22.058Z,21.57
2019-01-11T20:12:25.951Z,22.83
2019-01-11T20:15:29.521Z,21.50
2019-01-11T20:18:33.819Z,19.47
2019-01-11T20:21:38.069Z,19.93
2019-01-11T20:24:42.416Z,23.60
2019-01-11T20:27:46.076Z,20.07
2019-01-11T20:30:50.618Z,21.27
2019-01-11T20:33:55.704Z,23.77
2019-01-11T20:37:04.502Z,21.03
2019-01-11T20:40:10.731Z,24.07
2019-01-11T20:43:14.433Z,24.27
2019-01-11T20:46:18.048Z,23.93
2019-01-11T20:49:21.456Z,26.43
2019-01-11T20:52:25.291Z,21.67
2019-01-11T20:55:29.739Z,19.70
2019-01-11T20:58:33.200Z,22.03
2019-01-11T21:01:37.545Z,23.97
2019-01-11T21:04:46.693Z,22.07
2019-01-11T21:07:50.323Z,22.33
2019-01-11T21:10:54.288Z,21.87
2019-01-11T21:13:58.864Z,21.67
2019-01-11T21:17:02.356Z,24.20
2019-01-11T21:20:08.104Z,23.93
2019-01-11T21:23:11.749Z,22.60
2019-01-11T21:26:15.252Z,23.43
2019-01-11T21:29:18.663Z,22.33
2019-01-11T21:32:23.002Z,24.23
2019-01-11T21:35:26.691Z,24.43
2019-01-11T21:38:30.216Z,26.67
2019-01-11T21:41:34.045Z,22.10
2019-01-11T21:44:37.616Z,22.13
2019-01-11T21:47:41.345Z,23.27
2019-01-11T21:50:44.972Z,23.60
2019-01-11T21:53:48.409Z,24.80
2019-01-11T21:56:51.851Z,25.03
2019-01-11T21:59:56.039Z,23.93
2019-01-11T22:02:59.509Z,25.27
2019-01-11T22:06:02.992Z,26.30
2019-01-11T22:09:08.344Z,27.27
2019-01-11T22:12:11.703Z,25.00
2019-01-11T22:15:15.748Z,25.37
2019-01-11T22:18:19.627Z,26.63
2019-01-11T22:21:23.683Z,29.00
2019-01-11T22:24:27.363Z,26.20
2019-01-11T22:27:30.797Z,26.30
2019-01-11T22:30:35.080Z,28.27
2019-01-11T22:33:38.645Z,31.17
2019-01-11T22:36:42.273Z,25.60
2019-01-11T22:39:45.943Z,25.23
2019-01-11T22:42:51.211Z,27.43
2019-01-11T22:45:55.716Z,26.13
2019-01-11T22:48:59.226Z,27.33
2019-01-11T22:52:02.793Z,27.37
2019-01-11T22:55:07.011Z,27.10
2019-01-11T22:58:10.487Z,28.17
2019-01-11T23:01:51.341Z,27.43
2019-01-11T23:04:54.845Z,28.13
2019-01-11T23:08:01.296Z,30.67
2019-01-11T23:11:52.919Z,25.83
2019-01-11T23:14:56.395Z,30.03
2019-01-11T23:18:17.559Z,28.90
2019-01-11T23:21:21.068Z,29.10
2019-01-11T23:24:24.569Z,27.87
2019-01-11T23:27:28.092Z,26.63
2019-01-11T23:30:31.712Z,27.63
2019-01-11T23:33:35.216Z,26.50
2019-01-11T23:36:38.674Z,26.07
2019-01-11T23:39:42.185Z,27.17
2019-01-11T23:42:45.848Z,27.23
2019-01-11T23:45:49.282Z,29.13
2019-01-11T23:48:52.794Z,28.17
2019-01-11T23:51:56.335Z,26.33
2019-01-11T23:54:59.791Z,25.03
2019-01-11T23:58:03.297Z,28.30
